Time;durP1;ratioP1;P1;durP2;ratioP2;P2;SDS_P1;SDS_P2;PMS_P1;PMS_P2;Temp;Humidity;BMP_temperature;BMP_pressure;BME280_temperature;BME280_humidity;BME280_pressure;Samples;Min_cycle;Max_cycle;Signal;HPM_P1;HPM_P2
2023/10/12 00:01:57;;;;;;;7.28;1.38;;;14.20;99.90;;;;;;4999995;28;20216;-69
2023/10/12 00:04:25;;;;;;;4.35;1.05;;;14.20;99.90;;;;;;5009388;28;20266;-69
2023/10/12 00:06:52;;;;;;;3.75;1.13;;;14.20;99.90;;;;;;5018194;28;20198;-69
2023/10/12 00:09:20;;;;;;;10.30;1.98;;;14.20;99.90;;;;;;5016047;28;20201;-69
2023/10/12 00:11:56;;;;;;;3.28;1.10;;;14.30;99.90;;;;;;4991215;28;20297;-69
2023/10/12 00:14:23;;;;;;;3.55;1.63;;;14.30;99.90;;;;;;5014431;28;20201;-69
2023/10/12 00:16:51;;;;;;;7.72;1.08;;;14.20;99.90;;;;;;5018249;28;20209;-69
2023/10/12 00:19:18;;;;;;;2.78;1.20;;;14.40;99.90;;;;;;5001744;28;20236;-69
2023/10/12 00:21:46;;;;;;;4.43;0.80;;;14.30;99.90;;;;;;5011098;28;20197;-69
2023/10/12 00:24:17;;;;;;;9.35;1.45;;;14.20;99.90;;;;;;5014606;28;20448;-69
2023/10/12 00:26:44;;;;;;;3.35;1.05;;;14.20;99.90;;;;;;4982779;28;20748;-69
2023/10/12 00:29:12;;;;;;;6.03;1.10;;;13.90;99.90;;;;;;5016645;28;20204;-69
2023/10/12 00:31:43;;;;;;;7.25;1.83;;;14.10;99.90;;;;;;5012905;28;20395;-69
2023/10/12 00:34:11;;;;;;;5.85;1.17;;;14.00;99.90;;;;;;5009026;28;20879;-69
2023/10/12 00:36:38;;;;;;;4.90;1.35;;;14.00;99.90;;;;;;5011865;28;20205;-69
2023/10/12 00:39:09;;;;;;;9.00;1.75;;;14.10;99.90;;;;;;5024740;28;20712;-69
2023/10/12 00:41:37;;;;;;;6.15;1.42;;;14.20;99.90;;;;;;4988468;28;20229;-70
2023/10/12 00:44:10;;;;;;;2.97;1.13;;;14.10;99.90;;;;;;5022087;28;20222;-69
2023/10/12 00:46:58;;;;;;;6.68;1.60;;;14.50;99.90;;;;;;5021492;28;20233;-69
2023/10/12 00:49:29;;;;;;;6.63;1.35;;;14.00;99.90;;;;;;5004456;28;20205;-69
2023/10/12 00:52:08;;;;;;;5.13;1.13;;;14.00;99.90;;;;;;5008893;28;20208;-69
2023/10/12 00:54:43;;;;;;;7.03;1.77;;;14.10;99.90;;;;;;5020555;28;20211;-70
2023/10/12 00:57:10;;;;;;;3.47;1.30;;;14.00;99.90;;;;;;4985374;28;20217;-70
2023/10/12 00:59:38;;;;;;;8.80;1.27;;;13.90;99.90;;;;;;5012142;28;20230;-69
2023/10/12 01:02:09;;;;;;;7.22;1.55;;;14.10;99.90;;;;;;5015129;28;20272;-69
2023/10/12 01:04:36;;;;;;;4.35;1.42;;;14.10;99.90;;;;;;5010301;28;20216;-69
2023/10/12 01:07:06;;;;;;;6.57;1.55;;;14.00;99.90;;;;;;5011429;28;20206;-69
2023/10/12 01:09:42;;;;;;;5.47;1.60;;;13.80;99.90;;;;;;5018981;28;20681;-70
2023/10/12 01:12:13;;;;;;;5.45;1.00;;;14.10;99.90;;;;;;5015908;28;20193;-69
2023/10/12 01:14:43;;;;;;;6.50;1.92;;;14.00;99.90;;;;;;5006264;28;20686;-70
2023/10/12 01:17:17;;;;;;;4.95;1.23;;;14.30;99.90;;;;;;5016520;28;20305;-69
2023/10/12 01:19:47;;;;;;;5.68;1.55;;;14.00;99.90;;;;;;5009476;28;20229;-70
2023/10/12 01:22:25;;;;;;;10.07;1.45;;;14.00;99.90;;;;;;5013264;28;20201;-70
2023/10/12 01:25:00;;;;;;;9.55;1.58;;;14.00;99.90;;;;;;5007020;28;20194;-69
2023/10/12 01:27:27;;;;;;;5.78;2.03;;;14.00;99.90;;;;;;5012325;28;20220;-69
2023/10/12 01:29:58;;;;;;;7.57;1.80;;;14.10;99.90;;;;;;4975567;28;20220;-69
2023/10/12 01:32:28;;;;;;;5.82;1.35;;;14.00;99.90;;;;;;5017287;28;20245;-69
2023/10/12 01:34:57;;;;;;;6.10;1.50;;;13.80;99.90;;;;;;5009308;28;20206;-69
2023/10/12 01:37:26;;;;;;;5.85;1.35;;;14.00;99.90;;;;;;5021797;28;20671;-69
2023/10/12 01:39:56;;;;;;;6.93;1.60;;;14.00;99.90;;;;;;4994285;28;20249;-70
2023/10/12 01:42:25;;;;;;;6.97;1.35;;;13.90;99.90;;;;;;5018818;28;20285;-69
2023/10/12 01:44:53;;;;;;;4.00;1.50;;;13.80;99.90;;;;;;4972690;28;21435;-69
2023/10/12 01:47:20;;;;;;;5.13;1.55;;;13.90;99.90;;;;;;5018727;28;20198;-69
2023/10/12 01:49:48;;;;;;;3.92;1.30;;;13.90;99.90;;;;;;5003125;28;20233;-69
2023/10/12 01:52:17;;;;;;;6.75;1.30;;;13.90;99.90;;;;;;5010843;28;20244;-69
2023/10/12 01:54:48;;;;;;;9.45;1.92;;;14.00;99.90;;;;;;4998203;28;20229;-70
2023/10/12 01:57:18;;;;;;;7.50;1.60;;;13.80;99.90;;;;;;5017560;28;20309;-69
2023/10/12 01:59:45;;;;;;;5.82;1.63;;;13.90;99.90;;;;;;4984285;28;20221;-70
2023/10/12 02:02:15;;;;;;;10.82;1.67;;;13.90;99.90;;;;;;5016680;28;20198;-70
2023/10/12 02:04:43;;;;;;;4.80;1.42;;;13.80;99.90;;;;;;5011077;28;20694;-69
2023/10/12 02:07:10;;;;;;;8.43;1.90;;;13.80;99.90;;;;;;5005279;28;20210;-69
2023/10/12 02:09:37;;;;;;;6.18;1.75;;;13.90;99.90;;;;;;5008689;28;20213;-69
2023/10/12 02:12:11;;;;;;;8.05;2.05;;;13.90;99.90;;;;;;5017356;28;20207;-69
2023/10/12 02:14:39;;;;;;;4.72;1.25;;;13.80;99.90;;;;;;4996220;28;20201;-69
2023/10/12 02:17:08;;;;;;;10.15;1.60;;;13.80;99.90;;;;;;5016347;28;20221;-69
2023/10/12 02:19:41;;;;;;;4.70;1.65;;;13.50;99.90;;;;;;5018312;28;20233;-69
2023/10/12 02:22:18;;;;;;;10.02;1.98;;;13.90;99.90;;;;;;5003677;28;20256;-70
2023/10/12 02:24:50;;;;;;;6.78;1.90;;;13.80;99.90;;;;;;4993004;28;20201;-69
2023/10/12 02:27:19;;;;;;;7.72;1.73;;;13.80;99.90;;;;;;5020326;28;20252;-69
2023/10/12 02:29:49;;;;;;;10.07;1.95;;;13.80;99.90;;;;;;5008818;28;20202;-69
2023/10/12 02:32:20;;;;;;;11.05;1.67;;;13.90;99.90;;;;;;4990527;28;20220;-69
2023/10/12 02:34:51;;;;;;;4.90;1.60;;;13.80;99.90;;;;;;5018130;28;20197;-69
2023/10/12 02:37:19;;;;;;;14.57;1.85;;;13.90;99.90;;;;;;4997080;28;20206;-70
2023/10/12 02:39:46;;;;;;;7.60;2.25;;;13.70;99.90;;;;;;5013014;28;20234;-69
2023/10/12 02:42:18;;;;;;;6.72;1.73;;;13.70;99.90;;;;;;5016321;28;20221;-70
2023/10/12 02:47:33;;;;;;;8.55;1.70;;;14.00;99.90;;;;;;4990267;28;20221;-69
2023/10/12 02:50:01;;;;;;;5.93;1.48;;;13.60;99.90;;;;;;5019430;28;20217;-69
2023/10/12 02:52:30;;;;;;;9.15;2.10;;;13.60;99.90;;;;;;5011823;28;20213;-69
2023/10/12 02:54:57;;;;;;;5.32;1.70;;;13.60;99.90;;;;;;5010339;28;20237;-69
2023/10/12 02:57:25;;;;;;;7.20;1.70;;;13.70;99.90;;;;;;5012081;28;20209;-69
2023/10/12 02:59:58;;;;;;;7.47;1.92;;;13.60;99.90;;;;;;5009021;28;20264;-69
2023/10/12 03:02:32;;;;;;;12.05;2.10;;;13.50;99.90;;;;;;4977490;28;20347;-69
2023/10/12 03:05:01;;;;;;;9.55;1.85;;;13.60;99.90;;;;;;5019679;28;20606;-69
2023/10/12 03:07:28;;;;;;;4.03;1.13;;;13.10;99.90;;;;;;5005914;28;20201;-70
2023/10/12 03:09:58;;;;;;;3.50;1.50;;;13.50;99.90;;;;;;5006529;28;20206;-69
2023/10/12 03:12:26;;;;;;;6.70;1.75;;;13.50;99.90;;;;;;5006823;28;20700;-69
2023/10/12 03:14:54;;;;;;;7.35;2.40;;;13.80;99.90;;;;;;5016773;28;20228;-70
2023/10/12 03:17:23;;;;;;;4.70;1.33;;;13.50;99.90;;;;;;4990963;28;20229;-69
2023/10/12 03:19:56;;;;;;;7.82;2.08;;;;;;;;;;5012634;28;20318;-69
2023/10/12 03:22:31;;;;;;;6.40;1.92;;;13.60;99.90;;;;;;5002947;28;22039;-69
2023/10/12 03:25:05;;;;;;;5.85;1.80;;;13.60;99.90;;;;;;5002928;28;20205;-69
2023/10/12 03:27:33;;;;;;;6.32;1.67;;;13.50;99.90;;;;;;5005489;28;20228;-69
2023/10/12 03:30:07;;;;;;;8.02;1.63;;;13.50;99.90;;;;;;5012537;28;20216;-69
2023/10/12 03:32:34;;;;;;;7.35;1.77;;;13.50;99.90;;;;;;4990973;28;20216;-69
2023/10/12 03:35:04;;;;;;;8.80;1.65;;;13.50;99.90;;;;;;5015320;28;20209;-69
2023/10/12 03:37:45;;;;;;;4.13;1.20;;;;;;;;;;5017196;28;20297;-69
2023/10/12 03:43:16;;;;;;;8.50;1.45;;;13.40;99.90;;;;;;5001510;28;20205;-69
2023/10/12 03:46:01;;;;;;;7.40;1.52;;;13.00;99.90;;;;;;4998927;28;20228;-69
2023/10/12 03:48:47;;;;;;;7.22;1.52;;;13.30;99.90;;;;;;4983799;28;20214;-69
2023/10/12 03:51:25;;;;;;;4.75;1.63;;;13.60;99.90;;;;;;5011138;28;20561;-69
2023/10/12 03:53:57;;;;;;;5.72;1.38;;;13.20;99.90;;;;;;5000306;28;20222;-69
2023/10/12 03:56:29;;;;;;;11.35;1.40;;;13.30;99.90;;;;;;5011231;28;20202;-69
2023/10/12 03:59:00;;;;;;;6.22;1.90;;;13.30;99.90;;;;;;5006410;28;20216;-69
2023/10/12 04:01:31;;;;;;;7.80;1.52;;;13.20;99.90;;;;;;5007193;28;20202;-69
2023/10/12 04:04:10;;;;;;;5.78;1.20;;;13.30;99.90;;;;;;4988892;28;20221;-69
2023/10/12 04:07:16;;;;;;;4.70;1.40;;;13.20;99.90;;;;;;4999066;28;20290;-69
2023/10/12 04:09:43;;;;;;;4.57;1.30;;;13.20;99.90;;;;;;4995585;22;20237;-69
2023/10/12 04:12:19;;;;;;;6.70;1.50;;;13.30;99.90;;;;;;5007457;28;20232;-70
2023/10/12 04:14:50;;;;;;;7.32;1.42;;;13.20;99.90;;;;;;5005588;28;20249;-69
2023/10/12 04:20:14;;;;;;;3.30;1.48;;;13.20;99.90;;;;;;4995446;28;20252;-69
2023/10/12 04:25:34;;;;;;;6.65;1.73;;;13.20;99.90;;;;;;5008376;28;20213;-69
2023/10/12 04:28:16;;;;;;;7.72;1.98;;;13.30;99.90;;;;;;5022675;28;20198;-69
2023/10/12 04:31:20;;;;;;;4.93;1.55;;;13.10;99.90;;;;;;5015294;28;20208;-69
2023/10/12 04:33:43;;;;;;;6.50;1.48;;;13.10;99.90;;;;;;5028272;28;20197;-69
2023/10/12 04:36:24;;;;;;;5.90;1.35;;;13.10;99.90;;;;;;4990371;28;20211;-69
2023/10/12 04:39:11;;;;;;;6.85;1.40;;;13.20;99.90;;;;;;5001444;28;20883;-69
2023/10/12 04:41:53;;;;;;;6.50;1.40;;;13.10;99.90;;;;;;5007911;28;20565;-69
2023/10/12 04:44:35;;;;;;;6.85;1.80;;;13.50;99.90;;;;;;5002979;28;20274;-69
2023/10/12 04:47:04;;;;;;;6.10;1.75;;;12.80;99.90;;;;;;5029533;28;20247;-69
2023/10/12 04:52:25;;;;;;;11.13;2.08;;;13.10;99.90;;;;;;4968382;28;20228;-69
2023/10/12 04:55:20;;;;;;;4.30;1.63;;;13.10;99.90;;;;;;5003565;28;20282;-69
2023/10/12 04:57:49;;;;;;;10.00;1.75;;;13.00;99.90;;;;;;5008124;28;20314;-69
2023/10/12 05:00:24;;;;;;;6.25;1.27;;;15.90;99.90;;;;;;5012921;28;20229;-69
2023/10/12 05:02:58;;;;;;;7.57;1.30;;;13.10;99.90;;;;;;5019225;28;20243;-69
2023/10/12 05:05:55;;;;;;;10.27;1.45;;;13.10;99.90;;;;;;5024649;28;20208;-68
2023/10/12 05:08:21;;;;;;;5.82;1.58;;;13.00;99.90;;;;;;4996871;28;20251;-68
2023/10/12 05:10:48;;;;;;;8.98;1.40;;;13.00;99.90;;;;;;4990950;28;20229;-69
2023/10/12 05:13:19;;;;;;;6.78;1.73;;;13.00;99.90;;;;;;5027648;28;20236;-68
2023/10/12 05:15:54;;;;;;;6.80;1.58;;;12.50;99.90;;;;;;5009251;28;20217;-69
2023/10/12 05:18:22;;;;;;;4.03;1.48;;;13.00;99.90;;;;;;5022208;28;20920;-68
2023/10/12 05:20:51;;;;;;;6.55;1.60;;;13.00;99.90;;;;;;5019579;28;21029;-68
2023/10/12 05:23:18;;;;;;;5.45;1.45;;;12.90;99.90;;;;;;4990129;28;20233;-68
2023/10/12 05:25:53;;;;;;;6.07;1.60;;;12.90;99.90;;;;;;5003223;28;20237;-69
2023/10/12 05:28:21;;;;;;;5.47;1.80;;;13.00;99.90;;;;;;5005600;28;20573;-68
2023/10/12 05:30:51;;;;;;;9.52;1.50;;;13.00;99.90;;;;;;5026769;28;20693;-68
2023/10/12 05:33:38;;;;;;;2.65;1.17;;;12.90;99.90;;;;;;5017919;28;20296;-68
2023/10/12 05:36:11;;;;;;;8.27;1.50;;;12.90;99.90;;;;;;5028146;28;20193;-68
2023/10/12 05:38:40;;;;;;;5.35;1.38;;;12.60;99.90;;;;;;5000132;28;20256;-68
2023/10/12 05:41:09;;;;;;;7.18;1.95;;;12.90;99.90;;;;;;5005667;28;20233;-68
2023/10/12 05:43:38;;;;;;;9.02;2.35;;;12.90;99.90;;;;;;5007848;28;20232;-68
2023/10/12 05:46:10;;;;;;;5.78;2.00;;;13.00;99.90;;;;;;5024049;28;20316;-68
2023/10/12 05:48:41;;;;;;;10.93;2.28;;;12.90;99.90;;;;;;5011507;28;20249;-69
2023/10/12 05:51:11;;;;;;;8.13;2.30;;;12.90;99.90;;;;;;5023751;28;20283;-68
2023/10/12 05:53:38;;;;;;;11.85;2.42;;;13.10;99.90;;;;;;4997117;28;20364;-68
2023/10/12 05:56:06;;;;;;;3.05;1.60;;;13.00;99.90;;;;;;5015100;28;20216;-68
2023/10/12 05:58:34;;;;;;;13.80;2.65;;;12.90;99.90;;;;;;5018489;28;20209;-68
2023/10/12 06:01:08;;;;;;;6.60;2.30;;;12.90;99.90;;;;;;5025391;28;20950;-68
2023/10/12 06:03:36;;;;;;;7.88;2.15;;;12.90;99.90;;;;;;5011021;28;20949;-68
2023/10/12 06:06:04;;;;;;;10.27;2.33;;;12.60;99.90;;;;;;5023740;28;20822;-68
2023/10/12 06:08:33;;;;;;;9.75;2.40;;;13.10;99.90;;;;;;4995487;28;20233;-69
2023/10/12 06:11:00;;;;;;;8.32;2.40;;;13.00;99.90;;;;;;5008975;28;20843;-69
2023/10/12 06:13:32;;;;;;;4.32;1.85;;;13.00;99.90;;;;;;5026745;28;20975;-68
2023/10/12 06:15:59;;;;;;;6.15;1.75;;;13.20;99.90;;;;;;5012390;28;20490;-67
2023/10/12 06:18:30;;;;;;;12.20;2.00;;;13.00;99.90;;;;;;5014545;28;20583;-67
2023/10/12 06:20:59;;;;;;;6.90;2.00;;;12.90;99.90;;;;;;5015054;28;20225;-68
2023/10/12 06:23:28;;;;;;;4.95;1.60;;;12.90;99.90;;;;;;4986738;28;20717;-68
2023/10/12 06:25:56;;;;;;;8.02;2.55;;;12.90;99.90;;;;;;5014330;28;20201;-68
2023/10/12 06:28:24;;;;;;;9.63;2.10;;;12.90;99.90;;;;;;5021756;28;20197;-68
2023/10/12 06:30:52;;;;;;;7.20;1.65;;;13.00;99.90;;;;;;5023920;28;20251;-69
2023/10/12 06:33:22;;;;;;;6.97;2.03;;;13.00;99.90;;;;;;5014408;28;20209;-68
2023/10/12 06:36:01;;;;;;;8.75;2.47;;;13.00;99.90;;;;;;5024308;28;20202;-69
2023/10/12 06:38:38;;;;;;;17.40;3.53;;;12.90;99.90;;;;;;4989740;28;20216;-68
2023/10/12 06:44:13;;;;;;;6.90;2.25;;;12.90;99.90;;;;;;5018661;28;20208;-68
2023/10/12 06:46:45;;;;;;;5.20;2.08;;;12.90;99.90;;;;;;5030415;28;20292;-68
2023/10/12 06:49:18;;;;;;;10.93;1.83;;;12.80;99.90;;;;;;5011018;28;20221;-68
2023/10/12 06:51:53;;;;;;;3.58;1.75;;;13.10;99.90;;;;;;5025896;28;20209;-68
2023/10/12 06:54:32;;;;;;;7.57;2.08;;;13.00;99.90;;;;;;4995482;28;20209;-68
2023/10/12 06:59:52;;;;;;;11.07;5.18;;;13.20;99.90;;;;;;5017156;28;20231;-68
2023/10/12 07:02:23;;;;;;;12.18;2.28;;;12.80;99.90;;;;;;5021887;28;20201;-68
2023/10/12 07:04:54;;;;;;;7.13;2.20;;;12.80;99.90;;;;;;5008631;28;20226;-67
2023/10/12 07:07:26;;;;;;;17.15;3.47;;;12.80;99.90;;;;;;5008893;28;20627;-68
2023/10/12 07:10:12;;;;;;;11.02;2.33;;;12.80;99.90;;;;;;4998140;28;20233;-68
2023/10/12 07:12:42;;;;;;;7.25;2.17;;;12.80;99.90;;;;;;5017185;28;20213;-68
2023/10/12 07:15:12;;;;;;;8.43;2.70;;;12.70;99.90;;;;;;5012822;28;20222;-67
2023/10/12 07:17:48;;;;;;;7.70;1.88;;;12.70;99.90;;;;;;5028299;28;20245;-68
2023/10/12 07:20:27;;;;;;;6.55;2.03;;;12.80;99.90;;;;;;5006362;28;20229;-68
2023/10/12 07:22:55;;;;;;;13.30;2.33;;;13.90;99.90;;;;;;5025108;28;20569;-68
2023/10/12 07:25:23;;;;;;;10.57;2.38;;;12.90;99.90;;;;;;4997552;28;20869;-68
2023/10/12 07:27:58;;;;;;;14.38;2.70;;;12.80;99.90;;;;;;5026715;28;20586;-68
2023/10/12 07:30:33;;;;;;;9.10;1.90;;;12.90;99.90;;;;;;5016025;28;20229;-67
2023/10/12 07:33:04;;;;;;;6.38;1.90;;;12.80;99.90;;;;;;5016683;28;20220;-68
2023/10/12 07:35:34;;;;;;;11.57;4.78;;;13.00;99.90;;;;;;5014684;28;20320;-68
2023/10/12 07:38:02;;;;;;;13.25;3.35;;;13.00;99.90;;;;;;5023464;28;20228;-68
2023/10/12 07:40:35;;;;;;;10.20;3.85;;;13.10;99.90;;;;;;5002534;28;20236;-67
2023/10/12 07:43:07;;;;;;;10.27;2.47;;;13.10;99.90;;;;;;5019093;28;20333;-68
2023/10/12 07:45:38;;;;;;;6.95;2.22;;;12.80;99.90;;;;;;5011288;28;20205;-67
2023/10/12 07:48:09;;;;;;;12.90;2.78;;;13.20;99.90;;;;;;5023544;28;20209;-67
2023/10/12 07:50:45;;;;;;;10.70;2.00;;;13.10;99.90;;;;;;5010687;28;20335;-67
2023/10/12 07:53:22;;;;;;;9.90;2.03;;;13.30;99.90;;;;;;5024191;28;20197;-68
2023/10/12 07:55:53;;;;;;;7.53;2.42;;;13.20;99.90;;;;;;4984331;28;20230;-67
2023/10/12 07:58:21;;;;;;;11.20;2.25;;;13.00;99.90;;;;;;5025316;28;20198;-67
2023/10/12 08:00:51;;;;;;;16.75;3.17;;;13.60;99.90;;;;;;5007846;28;20221;-67
2023/10/12 08:03:19;;;;;;;6.93;1.85;;;13.30;99.90;;;;;;5015288;28;21430;-68
2023/10/12 08:05:57;;;;;;;7.55;1.70;;;13.30;99.90;;;;;;4997135;28;20221;-67
2023/10/12 08:08:34;;;;;;;8.90;3.38;;;13.40;99.90;;;;;;5014146;28;20305;-67
2023/10/12 08:11:10;;;;;;;6.70;2.38;;;13.30;99.90;;;;;;4982587;28;20626;-67
2023/10/12 08:13:47;;;;;;;39.55;16.52;;;13.40;99.90;;;;;;5002935;28;20647;-67
2023/10/12 08:16:15;;;;;;;7.50;3.97;;;13.40;99.90;;;;;;5012272;28;20686;-68
2023/10/12 08:21:38;;;;;;;6.57;1.73;;;14.00;99.90;;;;;;4990760;28;20332;-68
2023/10/12 08:24:09;;;;;;;9.00;2.20;;;13.60;99.90;;;;;;5013767;28;21047;-68
2023/10/12 08:26:47;;;;;;;7.13;1.85;;;13.50;99.90;;;;;;4977914;28;20249;-68
2023/10/12 08:30:02;;;;;;;11.93;1.95;;;13.60;99.90;;;;;;5011472;28;20216;-68
2023/10/12 08:32:27;;;;;;;6.60;1.83;;;13.80;99.90;;;;;;5001802;28;20251;-67
2023/10/12 08:38:11;;;;;;;10.50;1.75;;;13.80;99.90;;;;;;4989959;28;20209;-67
2023/10/12 08:40:55;;;;;;;7.65;1.80;;;13.80;99.90;;;;;;5023668;28;20320;-68
2023/10/12 08:46:07;;;;;;;9.63;1.48;;;13.90;99.90;;;;;;5006040;28;20599;-68
2023/10/12 08:48:35;;;;;;;4.60;1.38;;;14.00;99.90;;;;;;5013291;28;20197;-67
2023/10/12 08:51:09;;;;;;;6.32;1.85;;;13.90;99.90;;;;;;4983224;28;20978;-68
2023/10/12 08:53:40;;;;;;;28.23;3.28;;;14.00;99.90;;;;;;5008940;28;20229;-67
2023/10/12 08:56:11;;;;;;;8.65;2.03;;;12.80;99.90;;;;;;5007385;28;20217;-68
2023/10/12 08:58:48;;;;;;;5.38;1.73;;;14.10;99.90;;;;;;4990432;28;20244;-68
2023/10/12 09:01:23;;;;;;;4.97;1.65;;;14.20;99.90;;;;;;5008386;28;20359;-69
2023/10/12 09:03:53;;;;;;;7.50;1.58;;;14.10;99.90;;;;;;5017580;28;20220;-68
2023/10/12 09:06:53;;;;;;;7.72;1.90;;;14.20;99.90;;;;;;5007263;28;20206;-68
2023/10/12 09:12:11;;;;;;;3.60;1.20;;;14.30;99.90;;;;;;4990184;28;21294;-67
2023/10/12 09:14:43;;;;;;;5.57;1.65;;;14.30;99.90;;;;;;4986860;28;21051;-68
2023/10/12 09:17:20;;;;;;;8.38;1.63;;;14.30;99.90;;;;;;4974255;28;20346;-67
2023/10/12 09:19:48;;;;;;;8.88;1.27;;;14.30;99.90;;;;;;5009600;28;20713;-69
2023/10/12 09:22:27;;;;;;;7.60;1.73;;;14.30;99.90;;;;;;4991348;28;20677;-67
2023/10/12 09:24:56;;;;;;;5.60;1.38;;;14.40;99.90;;;;;;5009532;28;20593;-68
2023/10/12 09:27:36;;;;;;;8.57;1.90;;;12.80;99.90;;;;;;4990373;28;22097;-68
2023/10/12 09:30:15;;;;;;;7.20;1.15;;;14.50;99.90;;;;;;4989627;28;20232;-67
2023/10/12 09:32:57;;;;;;;21.52;7.25;;;14.50;99.90;;;;;;4999763;28;20222;-67
2023/10/12 09:35:33;;;;;;;29.52;3.10;;;14.70;99.90;;;;;;5020102;28;20311;-67
2023/10/12 09:38:05;;;;;;;22.42;2.28;;;14.80;99.90;;;;;;4974390;28;20225;-67
2023/10/12 09:40:39;;;;;;;28.05;2.55;;;14.80;99.90;;;;;;5016382;28;20575;-67
2023/10/12 09:43:12;;;;;;;88.25;5.75;;;14.90;99.90;;;;;;5005461;28;20209;-67
2023/10/12 09:45:45;;;;;;;33.20;3.08;;;14.80;99.90;;;;;;4992195;28;20804;-67
2023/10/12 09:48:19;;;;;;;12.35;2.33;;;14.80;99.90;;;;;;5009191;28;20701;-67
2023/10/12 09:50:48;;;;;;;9.02;1.73;;;14.90;99.90;;;;;;5000019;28;20202;-67
2023/10/12 09:56:10;;;;;;;10.18;2.15;;;14.90;99.90;;;;;;4989832;22;20272;-67
2023/10/12 09:58:45;;;;;;;19.25;2.30;;;14.90;99.90;;;;;;4987038;28;20711;-66
2023/10/12 10:01:16;;;;;;;7.47;1.40;;;14.80;99.90;;;;;;4983070;28;20842;-68
2023/10/12 10:03:48;;;;;;;8.88;1.88;;;15.10;99.90;;;;;;4988201;28;20210;-68
2023/10/12 10:06:28;;;;;;;10.80;1.40;;;14.90;99.90;;;;;;4989729;28;20210;-68
2023/10/12 10:09:16;;;;;;;5.45;1.38;;;14.90;99.90;;;;;;4977949;28;20226;-68
2023/10/12 10:11:45;;;;;;;6.32;1.40;;;14.80;99.90;;;;;;4993940;28;20244;-67
2023/10/12 10:14:20;;;;;;;7.55;2.13;;;14.80;99.90;;;;;;4989529;28;20369;-68
2023/10/12 10:16:47;;;;;;;16.38;2.03;;;14.90;99.90;;;;;;4970195;28;20218;-67
2023/10/12 10:19:16;;;;;;;17.48;2.38;;;14.90;99.90;;;;;;4986985;28;20209;-68
2023/10/12 10:21:50;;;;;;;13.45;1.80;;;14.90;99.90;;;;;;4974340;28;20237;-67
2023/10/12 10:24:24;;;;;;;8.32;1.67;;;15.00;99.90;;;;;;4977825;28;20226;-68
2023/10/12 10:26:58;;;;;;;9.35;1.67;;;15.00;99.90;;;;;;4972168;28;21179;-68
2023/10/12 10:29:41;;;;;;;11.25;1.63;;;15.00;99.90;;;;;;4995295;28;20209;-68
2023/10/12 10:32:08;;;;;;;5.65;1.55;;;15.10;99.90;;;;;;4958911;28;20214;-67
2023/10/12 10:34:36;;;;;;;11.88;2.20;;;15.10;99.90;;;;;;4975534;28;21000;-67
2023/10/12 10:37:04;;;;;;;45.58;3.60;;;14.40;99.90;;;;;;4979728;28;20230;-66
2023/10/12 10:39:31;;;;;;;23.50;2.97;;;15.00;99.90;;;;;;4973126;28;20238;-67
2023/10/12 10:42:00;;;;;;;10.73;1.75;;;15.10;99.90;;;;;;4977952;28;20250;-67
2023/10/12 10:44:29;;;;;;;3.50;1.45;;;14.90;99.90;;;;;;4980951;28;20239;-67
2023/10/12 10:47:00;;;;;;;8.15;1.38;;;15.10;99.90;;;;;;4961556;28;20277;-67
2023/10/12 10:49:30;;;;;;;5.47;1.10;;;14.90;99.90;;;;;;4997911;28;20203;-67
2023/10/12 10:52:13;;;;;;;8.60;1.67;;;15.00;99.90;;;;;;4973336;28;20668;-67
2023/10/12 10:54:56;;;;;;;5.63;1.38;;;15.00;99.90;;;;;;4978496;28;20258;-67
2023/10/12 10:57:31;;;;;;;5.28;1.40;;;14.90;99.90;;;;;;4979456;28;20218;-67
2023/10/12 10:59:58;;;;;;;8.85;1.98;;;14.90;99.90;;;;;;4955216;28;20224;-67
2023/10/12 11:02:25;;;;;;;6.97;1.67;;;15.00;99.90;;;;;;4942776;28;21095;-66
2023/10/12 11:04:55;;;;;;;9.30;1.60;;;14.90;99.90;;;;;;4979133;28;20226;-67
2023/10/12 11:07:24;;;;;;;6.03;1.50;;;14.90;99.90;;;;;;4983266;28;20243;-67
2023/10/12 11:10:19;;;;;;;5.53;1.98;;;14.90;99.90;;;;;;4974367;28;20324;-66
2023/10/12 11:12:45;;;;;;;7.65;1.25;;;14.90;99.90;;;;;;4973213;28;20222;-67
2023/10/12 11:15:12;;;;;;;15.43;1.73;;;14.90;99.90;;;;;;4985948;28;20210;-67
2023/10/12 11:17:55;;;;;;;8.30;1.70;;;14.60;99.90;;;;;;4957689;28;20248;-66
2023/10/12 11:20:49;;;;;;;8.30;1.70;;;14.80;99.90;;;;;;4973858;28;20772;-67
2023/10/12 11:23:18;;;;;;;11.00;1.60;;;14.80;99.90;;;;;;4990423;28;20238;-66
2023/10/12 11:25:45;;;;;;;4.35;1.30;;;14.40;99.90;;;;;;4977962;28;20241;-66
2023/10/12 11:28:22;;;;;;;9.40;1.27;;;14.70;99.90;;;;;;4986519;28;20226;-66
2023/10/12 11:30:51;;;;;;;5.82;1.42;;;16.40;99.90;;;;;;4982677;28;20205;-66
2023/10/12 11:33:25;;;;;;;9.70;2.15;;;14.80;99.90;;;;;;4962561;28;20215;-66
2023/10/12 11:35:54;;;;;;;14.45;1.65;;;14.70;99.90;;;;;;4992010;28;20232;-66
2023/10/12 11:38:24;;;;;;;5.82;1.38;;;14.70;99.90;;;;;;4983200;28;20663;-66
2023/10/12 11:40:53;;;;;;;13.60;1.50;;;14.60;99.90;;;;;;4993304;28;20352;-66
2023/10/12 11:43:21;;;;;;;5.93;1.63;;;14.70;99.90;;;;;;4992177;28;20233;-66
2023/10/12 11:45:56;;;;;;;9.23;1.45;;;14.80;99.90;;;;;;4976363;28;20204;-66
2023/10/12 11:48:24;;;;;;;9.75;1.83;;;14.80;99.90;;;;;;4993770;28;20264;-66
2023/10/12 11:50:51;;;;;;;37.65;3.30;;;15.00;99.90;;;;;;4959793;28;20699;-66
2023/10/12 11:53:18;;;;;;;9.98;1.80;;;13.70;99.90;;;;;;4975965;28;21112;-65
2023/10/12 11:55:48;;;;;;;7.32;1.60;;;14.90;99.90;;;;;;4997141;28;21097;-66
2023/10/12 11:58:19;;;;;;;12.82;1.70;;;15.00;99.90;;;;;;4974332;28;20220;-66
2023/10/12 12:00:48;;;;;;;7.72;1.48;;;;;;;;;;4982417;28;20524;-65
2023/10/12 12:03:15;;;;;;;6.20;1.25;;;16.40;99.90;;;;;;4975606;28;20226;-66
2023/10/12 12:05:43;;;;;;;6.50;1.48;;;15.10;99.90;;;;;;4957205;28;20606;-67
2023/10/12 12:08:14;;;;;;;6.80;2.10;;;15.10;99.90;;;;;;4983650;28;20199;-66
2023/10/12 12:10:45;;;;;;;5.50;1.45;;;15.10;99.90;;;;;;4995798;28;20569;-66
2023/10/12 12:13:15;;;;;;;9.88;2.00;;;15.10;99.90;;;;;;4973255;28;20676;-66
2023/10/12 12:15:43;;;;;;;5.95;1.50;;;15.10;99.90;;;;;;4995826;28;20240;-66
2023/10/12 12:18:17;;;;;;;7.50;1.50;;;15.20;99.90;;;;;;4979291;28;20261;-66
2023/10/12 12:20:44;;;;;;;8.40;2.00;;;15.10;99.90;;;;;;4966421;28;20213;-66
2023/10/12 12:23:11;;;;;;;9.90;1.80;;;15.10;99.90;;;;;;4978734;28;20230;-67
2023/10/12 12:25:40;;;;;;;11.68;1.50;;;15.10;99.90;;;;;;4996160;28;20226;-66
2023/10/12 12:28:08;;;;;;;11.05;2.05;;;15.70;99.90;;;;;;4982663;28;20812;-66
2023/10/12 12:30:39;;;;;;;7.10;1.35;;;14.90;99.90;;;;;;4985532;28;20263;-66
2023/10/12 12:33:14;;;;;;;6.30;1.58;;;15.10;99.90;;;;;;4977018;28;20224;-66
2023/10/12 12:35:41;;;;;;;7.88;1.60;;;15.10;99.90;;;;;;4970604;28;20299;-66
2023/10/12 12:38:18;;;;;;;18.70;3.15;;;15.10;99.90;;;;;;4982035;28;20210;-66
2023/10/12 12:40:45;;;;;;;10.93;1.90;;;15.10;99.90;;;;;;4991315;28;20206;-66
2023/10/12 12:43:12;;;;;;;4.13;1.48;;;15.10;99.90;;;;;;4991948;28;20232;-66
2023/10/12 12:45:41;;;;;;;10.32;1.50;;;15.10;99.90;;;;;;4972525;28;20230;-66
2023/10/12 12:48:08;;;;;;;5.70;1.52;;;15.20;99.90;;;;;;4978927;28;20226;-67
2023/10/12 12:50:35;;;;;;;9.98;1.60;;;15.20;99.90;;;;;;4966946;28;20213;-66
2023/10/12 12:53:04;;;;;;;3.88;1.55;;;15.60;99.90;;;;;;4985513;28;20221;-67
2023/10/12 12:55:32;;;;;;;8.88;1.60;;;15.30;99.90;;;;;;4980000;28;20233;-67
2023/10/12 12:57:59;;;;;;;6.60;1.80;;;15.10;99.90;;;;;;4990725;28;20210;-67
2023/10/12 13:00:26;;;;;;;7.63;1.60;;;15.20;99.90;;;;;;4987698;28;20710;-67
2023/10/12 13:03:00;;;;;;;10.00;1.92;;;15.20;99.90;;;;;;4961251;28;20237;-67
2023/10/12 13:05:28;;;;;;;8.05;2.17;;;;;;;;;;4945877;28;20738;-67
2023/10/12 13:07:55;;;;;;;7.28;1.77;;;15.30;99.90;;;;;;4985649;28;20230;-67
2023/10/12 13:10:23;;;;;;;34.78;4.00;;;15.20;99.90;;;;;;4980751;28;20229;-66
2023/10/12 13:12:49;;;;;;;14.68;3.42;;;15.20;99.90;;;;;;4992423;28;20244;-66
2023/10/12 13:15:16;;;;;;;14.55;4.45;;;15.20;99.90;;;;;;4967808;28;20227;-66
2023/10/12 13:17:43;;;;;;;19.33;4.85;;;15.10;99.90;;;;;;4987508;28;20225;-67
2023/10/12 13:20:21;;;;;;;7.20;1.98;;;15.20;99.90;;;;;;4981130;28;20218;-66
2023/10/12 13:22:49;;;;;;;6.45;1.38;;;15.30;99.90;;;;;;4954113;28;20231;-66
2023/10/12 13:25:17;;;;;;;11.07;1.92;;;15.30;99.90;;;;;;4982189;28;20205;-67
2023/10/12 13:27:45;;;;;;;5.60;1.85;;;15.20;99.90;;;;;;4990713;28;20217;-67
2023/10/12 13:30:14;;;;;;;6.38;1.60;;;15.20;99.90;;;;;;4982735;28;20202;-66
2023/10/12 13:32:43;;;;;;;3.65;1.20;;;15.20;99.90;;;;;;4983689;28;20810;-66
2023/10/12 13:35:31;;;;;;;6.35;1.55;;;15.20;99.90;;;;;;4986093;28;22189;-66
2023/10/12 13:38:02;;;;;;;9.30;1.58;;;15.10;99.90;;;;;;4958541;28;20993;-66
2023/10/12 13:40:29;;;;;;;9.68;1.13;;;15.20;99.90;;;;;;4972974;28;20611;-66
2023/10/12 13:43:01;;;;;;;5.18;1.50;;;15.30;99.90;;;;;;4985622;28;20236;-66
2023/10/12 13:45:28;;;;;;;14.48;1.95;;;15.30;99.90;;;;;;4982102;28;20920;-67